Kenwood, California
Current Conditions -  °F | °C
As of 1:30 AM on Friday 31 Oct 2014 (Local Time) from KO69 Reporting Station
Few Clouds Few Clouds  
Wind Chill: 57°   Ceiling: Unl
Heat Index: 57°   Visibility: 10mi
Dew Point: 57°   Wind: 0mph
Humidity: 100%   Direction: NA
Pressure: 29.91"   Gusts: NA
Location:  38.41°N, 122.55°W
Report Text: KO69 310830Z AUTO 00000KT 10SM FEW013 14/14 A2991 RMK AO1
Loading
Personal Weather Stations






























Interactive Weather Map
Tropical Storm Tracking
New forecast layout! Learn more

10-Day Weather Forecast

Advertisements
Track Severe Weather on mobile